KHIE

Mount Washington Regional Airport

Whitefield, New Hampshire, USA
METAR KHIE 181611Z AUTO 00000KT 2 1/2SM -SN BR OVC025 M12/M14 A2999 RMK AO2 SNB1557 P0000 T11221144
Observed Flight Rules
Dec-18 @ 16:11 UTC (28 minutes ago) Instrument Flight Rules
Wind Visibility Clouds Conditions
Calm 2 1/2 miles
  • Overcast at 2,500' AGL
  • Light Snow
  • Mist
Temperatures Readings Precipitation
Current -12°C / 10°F
Dewpoint -14°C / 7°F
Humidity 85%
Altimeter 29.99" Hg
Pressure 1016 hPa
Elevation 318
Current Rain 0.005
METAR KHIE 181611Z AUTO 00000KT 2 1/2SM -SN BR OVC025 M12/M14 A2999 RMK AO2 SNB1557 P0000 T11221144
Observed Flight Rules
Dec-18 @ 16:11 UTC
(28 minutes ago)
IFR
Wind Visibility
Calm 2 1/2 miles
Clouds
  • Overcast at 2,500' AGL
Conditions
  • Light Snow
  • Mist
Temperature Dewpoint
-12°C / 10°F -14°C / 7°F
Humidity Altimeter Pressure
85% 29.99" Hg 1016 hPa
Current Rain
0.005